sensor_id;sensor_type;location;lat;lon;timestamp;temperature;humidity
26103;DHT22;32703;49.182;9.042;2022-10-29T00:02:06;12.90;99.90
26103;DHT22;32703;49.182;9.042;2022-10-29T00:04:31;12.90;99.90
26103;DHT22;32703;49.182;9.042;2022-10-29T00:06:57;12.80;99.90
26103;DHT22;32703;49.182;9.042;2022-10-29T00:09:22;12.80;99.90
26103;DHT22;32703;49.182;9.042;2022-10-29T00:11:48;12.80;99.90
26103;DHT22;32703;49.182;9.042;2022-10-29T00:14:15;12.80;99.90
26103;DHT22;32703;49.182;9.042;2022-10-29T00:16:40;12.80;99.90
26103;DHT22;32703;49.182;9.042;2022-10-29T00:19:06;12.90;99.90
26103;DHT22;32703;49.182;9.042;2022-10-29T00:21:32;12.80;99.90
26103;DHT22;32703;49.182;9.042;2022-10-29T00:23:59;12.80;99.90
26103;DHT22;32703;49.182;9.042;2022-10-29T00:26:27;12.80;99.90
26103;DHT22;32703;49.182;9.042;2022-10-29T00:28:54;12.80;99.90
26103;DHT22;32703;49.182;9.042;2022-10-29T00:31:21;12.90;99.90
26103;DHT22;32703;49.182;9.042;2022-10-29T00:33:49;12.90;99.90
26103;DHT22;32703;49.182;9.042;2022-10-29T00:36:20;12.90;99.90
26103;DHT22;32703;49.182;9.042;2022-10-29T00:38:47;12.90;99.90
26103;DHT22;32703;49.182;9.042;2022-10-29T00:41:15;12.90;99.90
26103;DHT22;32703;49.182;9.042;2022-10-29T00:44:20;12.90;99.90
26103;DHT22;32703;49.182;9.042;2022-10-29T00:46:37;12.90;99.90
26103;DHT22;32703;49.182;9.042;2022-10-29T00:49:03;12.90;99.90
26103;DHT22;32703;49.182;9.042;2022-10-29T00:51:29;12.80;99.90
26103;DHT22;32703;49.182;9.042;2022-10-29T00:54:08;12.80;99.90
26103;DHT22;32703;49.182;9.042;2022-10-29T00:56:38;12.80;99.90
26103;DHT22;32703;49.182;9.042;2022-10-29T00:59:05;12.80;99.90
26103;DHT22;32703;49.182;9.042;2022-10-29T01:01:32;12.70;99.90
26103;DHT22;32703;49.182;9.042;2022-10-29T01:03:58;12.70;99.90
26103;DHT22;32703;49.182;9.042;2022-10-29T01:06:25;12.80;99.90
26103;DHT22;32703;49.182;9.042;2022-10-29T01:08:53;12.70;99.90
26103;DHT22;32703;49.182;9.042;2022-10-29T01:14:18;12.70;99.90
26103;DHT22;32703;49.182;9.042;2022-10-29T01:17:23;12.70;99.90
26103;DHT22;32703;49.182;9.042;2022-10-29T01:22:42;12.70;99.90
26103;DHT22;32703;49.182;9.042;2022-10-29T01:28:04;12.60;99.90
26103;DHT22;32703;49.182;9.042;2022-10-29T01:33:40;12.50;99.90
26103;DHT22;32703;49.182;9.042;2022-10-29T01:41:40;12.50;99.90
26103;DHT22;32703;49.182;9.042;2022-10-29T01:44:56;12.40;99.90
26103;DHT22;32703;49.182;9.042;2022-10-29T01:47:03;12.40;99.90
26103;DHT22;32703;49.182;9.042;2022-10-29T01:49:39;12.40;99.90
26103;DHT22;32703;49.182;9.042;2022-10-29T01:52:07;12.30;99.90
26103;DHT22;32703;49.182;9.042;2022-10-29T01:54:39;12.30;99.90
26103;DHT22;32703;49.182;9.042;2022-10-29T01:57:29;12.30;99.90
26103;DHT22;32703;49.182;9.042;2022-10-29T02:00:08;12.30;99.90
26103;DHT22;32703;49.182;9.042;2022-10-29T02:02:51;12.30;99.90
26103;DHT22;32703;49.182;9.042;2022-10-29T02:10:31;12.40;99.90
26103;DHT22;32703;49.182;9.042;2022-10-29T02:12:58;12.40;99.90
26103;DHT22;32703;49.182;9.042;2022-10-29T02:18:01;12.30;99.90
26103;DHT22;32703;49.182;9.042;2022-10-29T02:20:28;12.30;99.90
26103;DHT22;32703;49.182;9.042;2022-10-29T02:22:53;12.20;99.90
26103;DHT22;32703;49.182;9.042;2022-10-29T02:25:19;12.20;99.90
26103;DHT22;32703;49.182;9.042;2022-10-29T02:27:45;12.20;99.90
26103;DHT22;32703;49.182;9.042;2022-10-29T02:30:10;12.20;99.90
26103;DHT22;32703;49.182;9.042;2022-10-29T02:32:36;12.10;99.90
26103;DHT22;32703;49.182;9.042;2022-10-29T02:35:02;12.10;99.90
26103;DHT22;32703;49.182;9.042;2022-10-29T02:37:28;12.10;99.90
26103;DHT22;32703;49.182;9.042;2022-10-29T02:39:53;12.10;99.90
26103;DHT22;32703;49.182;9.042;2022-10-29T02:42:19;12.10;99.90
26103;DHT22;32703;49.182;9.042;2022-10-29T02:44:44;12.10;99.90
26103;DHT22;32703;49.182;9.042;2022-10-29T02:47:10;12.10;99.90
26103;DHT22;32703;49.182;9.042;2022-10-29T02:49:35;12.10;99.90
26103;DHT22;32703;49.182;9.042;2022-10-29T02:52:01;12.10;99.90
26103;DHT22;32703;49.182;9.042;2022-10-29T02:54:26;12.20;99.90
26103;DHT22;32703;49.182;9.042;2022-10-29T02:56:52;12.10;99.90
26103;DHT22;32703;49.182;9.042;2022-10-29T02:59:17;12.10;99.90
26103;DHT22;32703;49.182;9.042;2022-10-29T03:01:43;12.10;99.90
26103;DHT22;32703;49.182;9.042;2022-10-29T03:04:10;12.10;99.90
26103;DHT22;32703;49.182;9.042;2022-10-29T03:06:36;12.10;99.90
26103;DHT22;32703;49.182;9.042;2022-10-29T03:09:02;12.00;99.90
26103;DHT22;32703;49.182;9.042;2022-10-29T03:11:28;12.00;99.90
26103;DHT22;32703;49.182;9.042;2022-10-29T03:13:54;11.90;99.90
26103;DHT22;32703;49.182;9.042;2022-10-29T03:16:19;12.00;99.90
26103;DHT22;32703;49.182;9.042;2022-10-29T03:18:45;12.00;99.90
26103;DHT22;32703;49.182;9.042;2022-10-29T03:21:10;12.00;99.90
26103;DHT22;32703;49.182;9.042;2022-10-29T03:23:36;12.00;99.90
26103;DHT22;32703;49.182;9.042;2022-10-29T03:26:02;11.90;99.90
26103;DHT22;32703;49.182;9.042;2022-10-29T03:28:27;11.90;99.90
26103;DHT22;32703;49.182;9.042;2022-10-29T03:30:54;11.90;99.90
26103;DHT22;32703;49.182;9.042;2022-10-29T03:33:20;11.90;99.90
26103;DHT22;32703;49.182;9.042;2022-10-29T03:35:45;11.90;99.90
26103;DHT22;32703;49.182;9.042;2022-10-29T03:38:11;11.90;99.90
26103;DHT22;32703;49.182;9.042;2022-10-29T03:40:36;11.90;99.90
26103;DHT22;32703;49.182;9.042;2022-10-29T03:43:02;11.90;99.90
26103;DHT22;32703;49.182;9.042;2022-10-29T03:45:27;12.00;99.90
26103;DHT22;32703;49.182;9.042;2022-10-29T03:47:53;11.90;99.90
26103;DHT22;32703;49.182;9.042;2022-10-29T03:50:18;12.00;99.90
26103;DHT22;32703;49.182;9.042;2022-10-29T03:52:44;12.10;99.90
26103;DHT22;32703;49.182;9.042;2022-10-29T03:55:10;12.10;99.90
26103;DHT22;32703;49.182;9.042;2022-10-29T03:57:35;12.30;99.90
26103;DHT22;32703;49.182;9.042;2022-10-29T04:00:01;12.20;99.90
26103;DHT22;32703;49.182;9.042;2022-10-29T04:02:29;12.20;99.90
26103;DHT22;32703;49.182;9.042;2022-10-29T04:04:55;12.20;99.90
26103;DHT22;32703;49.182;9.042;2022-10-29T04:07:20;12.20;99.90
26103;DHT22;32703;49.182;9.042;2022-10-29T04:09:46;12.20;99.90
26103;DHT22;32703;49.182;9.042;2022-10-29T04:12:11;12.20;99.90
26103;DHT22;32703;49.182;9.042;2022-10-29T04:14:37;12.10;99.90
26103;DHT22;32703;49.182;9.042;2022-10-29T04:17:02;12.10;99.90
26103;DHT22;32703;49.182;9.042;2022-10-29T04:19:28;12.10;99.90
26103;DHT22;32703;49.182;9.042;2022-10-29T04:21:54;12.00;99.90
26103;DHT22;32703;49.182;9.042;2022-10-29T04:24:19;11.90;99.90
26103;DHT22;32703;49.182;9.042;2022-10-29T04:26:45;11.90;99.90
26103;DHT22;32703;49.182;9.042;2022-10-29T04:29:10;11.90;99.90
26103;DHT22;32703;49.182;9.042;2022-10-29T04:31:36;11.80;99.90
26103;DHT22;32703;49.182;9.042;2022-10-29T04:34:02;11.90;99.90
26103;DHT22;32703;49.182;9.042;2022-10-29T04:36:28;11.90;99.90
26103;DHT22;32703;49.182;9.042;2022-10-29T04:38:54;11.90;99.90
26103;DHT22;32703;49.182;9.042;2022-10-29T04:41:19;11.90;99.90
26103;DHT22;32703;49.182;9.042;2022-10-29T04:43:45;11.90;99.90
26103;DHT22;32703;49.182;9.042;2022-10-29T04:46:10;11.90;99.90
26103;DHT22;32703;49.182;9.042;2022-10-29T04:48:36;11.90;99.90
26103;DHT22;32703;49.182;9.042;2022-10-29T04:51:02;11.90;99.90
26103;DHT22;32703;49.182;9.042;2022-10-29T04:53:27;11.90;99.90
26103;DHT22;32703;49.182;9.042;2022-10-29T04:55:59;11.90;99.90
26103;DHT22;32703;49.182;9.042;2022-10-29T04:58:26;11.80;99.90
26103;DHT22;32703;49.182;9.042;2022-10-29T05:00:51;11.80;99.90
26103;DHT22;32703;49.182;9.042;2022-10-29T05:03:17;11.70;99.90
26103;DHT22;32703;49.182;9.042;2022-10-29T05:05:42;11.60;99.90
26103;DHT22;32703;49.182;9.042;2022-10-29T05:08:09;11.60;99.90
26103;DHT22;32703;49.182;9.042;2022-10-29T05:10:37;11.60;99.90
26103;DHT22;32703;49.182;9.042;2022-10-29T05:13:05;11.50;99.90
26103;DHT22;32703;49.182;9.042;2022-10-29T05:15:32;11.50;99.90
26103;DHT22;32703;49.182;9.042;2022-10-29T05:17:58;11.50;99.90
26103;DHT22;32703;49.182;9.042;2022-10-29T05:20:24;11.40;99.90
26103;DHT22;32703;49.182;9.042;2022-10-29T05:22:49;11.40;99.90
26103;DHT22;32703;49.182;9.042;2022-10-29T05:25:15;11.40;99.90
26103;DHT22;32703;49.182;9.042;2022-10-29T05:27:41;11.30;99.90
26103;DHT22;32703;49.182;9.042;2022-10-29T05:30:07;11.30;99.90
26103;DHT22;32703;49.182;9.042;2022-10-29T05:32:33;11.30;99.90
26103;DHT22;32703;49.182;9.042;2022-10-29T05:34:58;11.30;99.90
26103;DHT22;32703;49.182;9.042;2022-10-29T05:37:24;11.30;99.90
26103;DHT22;32703;49.182;9.042;2022-10-29T05:39:52;11.30;99.90
26103;DHT22;32703;49.182;9.042;2022-10-29T05:42:18;11.40;99.90
26103;DHT22;32703;49.182;9.042;2022-10-29T05:44:43;11.40;99.90
26103;DHT22;32703;49.182;9.042;2022-10-29T05:47:09;11.40;99.90
26103;DHT22;32703;49.182;9.042;2022-10-29T05:49:34;11.50;99.90
26103;DHT22;32703;49.182;9.042;2022-10-29T05:52:00;11.40;99.90
26103;DHT22;32703;49.182;9.042;2022-10-29T05:54:25;11.50;99.90
26103;DHT22;32703;49.182;9.042;2022-10-29T05:56:51;11.40;99.90
26103;DHT22;32703;49.182;9.042;2022-10-29T05:59:16;11.50;99.90
26103;DHT22;32703;49.182;9.042;2022-10-29T06:01:42;11.40;99.90
26103;DHT22;32703;49.182;9.042;2022-10-29T06:04:07;11.40;99.90
26103;DHT22;32703;49.182;9.042;2022-10-29T06:06:33;11.40;99.90
26103;DHT22;32703;49.182;9.042;2022-10-29T06:08:59;11.30;99.90
26103;DHT22;32703;49.182;9.042;2022-10-29T06:11:24;11.30;99.90
26103;DHT22;32703;49.182;9.042;2022-10-29T06:13:53;11.30;99.90
26103;DHT22;32703;49.182;9.042;2022-10-29T06:16:19;11.30;99.90
26103;DHT22;32703;49.182;9.042;2022-10-29T06:18:44;11.30;99.90
26103;DHT22;32703;49.182;9.042;2022-10-29T06:21:10;11.20;99.90
26103;DHT22;32703;49.182;9.042;2022-10-29T06:23:36;11.20;99.90
26103;DHT22;32703;49.182;9.042;2022-10-29T06:26:01;11.20;99.90
26103;DHT22;32703;49.182;9.042;2022-10-29T06:28:27;11.30;99.90
26103;DHT22;32703;49.182;9.042;2022-10-29T06:30:56;11.30;99.90
26103;DHT22;32703;49.182;9.042;2022-10-29T06:33:22;11.30;99.90
26103;DHT22;32703;49.182;9.042;2022-10-29T06:35:47;11.40;99.90
26103;DHT22;32703;49.182;9.042;2022-10-29T06:38:13;11.40;99.90
26103;DHT22;32703;49.182;9.042;2022-10-29T06:40:40;11.50;99.90
26103;DHT22;32703;49.182;9.042;2022-10-29T06:43:08;11.60;99.90
26103;DHT22;32703;49.182;9.042;2022-10-29T06:45:34;11.70;99.90
26103;DHT22;32703;49.182;9.042;2022-10-29T06:48:01;11.80;99.90
26103;DHT22;32703;49.182;9.042;2022-10-29T06:50:27;11.90;99.90
26103;DHT22;32703;49.182;9.042;2022-10-29T06:52:54;12.00;99.90
26103;DHT22;32703;49.182;9.042;2022-10-29T06:55:20;12.10;99.90
26103;DHT22;32703;49.182;9.042;2022-10-29T06:57:46;12.20;99.90
26103;DHT22;32703;49.182;9.042;2022-10-29T07:00:11;12.20;99.90
26103;DHT22;32703;49.182;9.042;2022-10-29T07:02:37;12.30;99.90
26103;DHT22;32703;49.182;9.042;2022-10-29T07:05:03;12.30;99.90
26103;DHT22;32703;49.182;9.042;2022-10-29T07:07:28;12.30;99.90
26103;DHT22;32703;49.182;9.042;2022-10-29T07:09:54;12.40;99.90
26103;DHT22;32703;49.182;9.042;2022-10-29T07:12:19;12.40;99.90
26103;DHT22;32703;49.182;9.042;2022-10-29T07:14:45;12.40;99.90
26103;DHT22;32703;49.182;9.042;2022-10-29T07:17:10;12.40;99.90
26103;DHT22;32703;49.182;9.042;2022-10-29T07:19:36;12.40;99.90
26103;DHT22;32703;49.182;9.042;2022-10-29T07:22:02;12.50;99.90
26103;DHT22;32703;49.182;9.042;2022-10-29T07:24:27;12.50;99.90
26103;DHT22;32703;49.182;9.042;2022-10-29T07:26:53;12.50;99.90
26103;DHT22;32703;49.182;9.042;2022-10-29T07:29:18;12.60;99.90
26103;DHT22;32703;49.182;9.042;2022-10-29T07:31:44;12.50;99.90
26103;DHT22;32703;49.182;9.042;2022-10-29T07:34:09;12.60;99.90
26103;DHT22;32703;49.182;9.042;2022-10-29T07:36:35;12.60;99.90
26103;DHT22;32703;49.182;9.042;2022-10-29T07:39:00;12.70;99.90
26103;DHT22;32703;49.182;9.042;2022-10-29T07:41:27;12.80;99.90
26103;DHT22;32703;49.182;9.042;2022-10-29T07:43:52;12.80;99.90
26103;DHT22;32703;49.182;9.042;2022-10-29T07:46:18;12.90;99.90
26103;DHT22;32703;49.182;9.042;2022-10-29T07:48:43;13.10;99.90
26103;DHT22;32703;49.182;9.042;2022-10-29T07:51:09;13.00;99.90
26103;DHT22;32703;49.182;9.042;2022-10-29T07:53:34;13.20;99.90
26103;DHT22;32703;49.182;9.042;2022-10-29T07:56:00;13.30;99.90
26103;DHT22;32703;49.182;9.042;2022-10-29T07:58:25;13.40;99.90
26103;DHT22;32703;49.182;9.042;2022-10-29T08:00:51;13.60;99.90
26103;DHT22;32703;49.182;9.042;2022-10-29T08:03:17;13.70;99.90
26103;DHT22;32703;49.182;9.042;2022-10-29T08:05:43;14.00;99.90
26103;DHT22;32703;49.182;9.042;2022-10-29T08:08:10;14.20;99.90
26103;DHT22;32703;49.182;9.042;2022-10-29T08:10:35;14.40;99.90
26103;DHT22;32703;49.182;9.042;2022-10-29T08:13:03;14.60;99.90
26103;DHT22;32703;49.182;9.042;2022-10-29T08:15:30;14.70;99.90
26103;DHT22;32703;49.182;9.042;2022-10-29T08:17:56;14.90;99.90
26103;DHT22;32703;49.182;9.042;2022-10-29T08:20:25;15.00;99.90
26103;DHT22;32703;49.182;9.042;2022-10-29T08:22:51;15.20;99.90
26103;DHT22;32703;49.182;9.042;2022-10-29T08:25:17;15.30;99.90
26103;DHT22;32703;49.182;9.042;2022-10-29T08:27:43;15.50;99.90
26103;DHT22;32703;49.182;9.042;2022-10-29T08:30:10;15.60;99.90
26103;DHT22;32703;49.182;9.042;2022-10-29T08:32:42;15.80;99.90
26103;DHT22;32703;49.182;9.042;2022-10-29T08:35:08;15.80;99.90
26103;DHT22;32703;49.182;9.042;2022-10-29T08:37:34;15.90;99.90
26103;DHT22;32703;49.182;9.042;2022-10-29T08:39:59;16.00;99.90
26103;DHT22;32703;49.182;9.042;2022-10-29T08:45:30;16.20;99.90
26103;DHT22;32703;49.182;9.042;2022-10-29T08:50:57;16.30;99.90
26103;DHT22;32703;49.182;9.042;2022-10-29T08:53:30;16.40;99.90
26103;DHT22;32703;49.182;9.042;2022-10-29T08:55:58;16.60;99.90
26103;DHT22;32703;49.182;9.042;2022-10-29T08:58:34;16.80;99.90
26103;DHT22;32703;49.182;9.042;2022-10-29T09:01:00;16.90;99.90
26103;DHT22;32703;49.182;9.042;2022-10-29T09:03:27;17.10;99.90
26103;DHT22;32703;49.182;9.042;2022-10-29T09:06:04;17.30;99.90
26103;DHT22;32703;49.182;9.042;2022-10-29T09:08:43;17.50;99.90
26103;DHT22;32703;49.182;9.042;2022-10-29T09:14:19;18.00;99.90
26103;DHT22;32703;49.182;9.042;2022-10-29T09:30:20;19.30;99.90
26103;DHT22;32703;49.182;9.042;2022-10-29T09:32:53;19.40;99.90
26103;DHT22;32703;49.182;9.042;2022-10-29T09:35:21;19.50;99.90
26103;DHT22;32703;49.182;9.042;2022-10-29T09:37:55;19.60;99.90
26103;DHT22;32703;49.182;9.042;2022-10-29T09:42:56;20.10;99.90
26103;DHT22;32703;49.182;9.042;2022-10-29T09:48:34;20.60;99.90
26103;DHT22;32703;49.182;9.042;2022-10-29T09:53:57;21.00;99.90
26103;DHT22;32703;49.182;9.042;2022-10-29T09:56:22;21.00;99.70
26103;DHT22;32703;49.182;9.042;2022-10-29T09:58:53;21.20;99.10
26103;DHT22;32703;49.182;9.042;2022-10-29T10:01:19;21.20;98.10
26103;DHT22;32703;49.182;9.042;2022-10-29T10:03:48;21.30;98.00
26103;DHT22;32703;49.182;9.042;2022-10-29T10:06:18;21.40;98.50
26103;DHT22;32703;49.182;9.042;2022-10-29T10:09:10;21.50;98.50
26103;DHT22;32703;49.182;9.042;2022-10-29T10:11:45;21.60;98.10
26103;DHT22;32703;49.182;9.042;2022-10-29T10:14:21;21.70;97.50
26103;DHT22;32703;49.182;9.042;2022-10-29T10:16:59;21.90;97.30
26103;DHT22;32703;49.182;9.042;2022-10-29T10:19:27;22.00;96.40
26103;DHT22;32703;49.182;9.042;2022-10-29T10:22:00;22.10;95.60
26103;DHT22;32703;49.182;9.042;2022-10-29T10:24:36;22.20;94.20
26103;DHT22;32703;49.182;9.042;2022-10-29T10:27:24;22.30;94.30
26103;DHT22;32703;49.182;9.042;2022-10-29T10:32:27;22.60;93.60
26103;DHT22;32703;49.182;9.042;2022-10-29T10:34:53;22.50;93.40
26103;DHT22;32703;49.182;9.042;2022-10-29T10:37:19;22.70;92.80
26103;DHT22;32703;49.182;9.042;2022-10-29T10:39:57;22.80;93.00
26103;DHT22;32703;49.182;9.042;2022-10-29T10:45:00;22.90;91.30
26103;DHT22;32703;49.182;9.042;2022-10-29T10:47:29;23.00;91.70
26103;DHT22;32703;49.182;9.042;2022-10-29T10:50:12;23.00;91.60
26103;DHT22;32703;49.182;9.042;2022-10-29T10:52:41;23.10;91.60
26103;DHT22;32703;49.182;9.042;2022-10-29T10:55:15;23.10;91.60
26103;DHT22;32703;49.182;9.042;2022-10-29T11:00:38;23.20;91.10
26103;DHT22;32703;49.182;9.042;2022-10-29T11:03:12;23.30;90.80
26103;DHT22;32703;49.182;9.042;2022-10-29T11:05:43;23.40;90.40
26103;DHT22;32703;49.182;9.042;2022-10-29T11:10:58;23.70;89.50
26103;DHT22;32703;49.182;9.042;2022-10-29T11:13:28;23.80;89.50
26103;DHT22;32703;49.182;9.042;2022-10-29T11:15:57;23.90;89.90
26103;DHT22;32703;49.182;9.042;2022-10-29T11:18:43;23.90;90.00
26103;DHT22;32703;49.182;9.042;2022-10-29T11:21:33;24.20;89.10
26103;DHT22;32703;49.182;9.042;2022-10-29T11:24:26;24.30;88.30
26103;DHT22;32703;49.182;9.042;2022-10-29T11:29:40;24.40;87.30
26103;DHT22;32703;49.182;9.042;2022-10-29T11:34:54;24.80;86.90
26103;DHT22;32703;49.182;9.042;2022-10-29T11:37:48;24.90;85.70
26103;DHT22;32703;49.182;9.042;2022-10-29T11:42:39;25.10;84.80
26103;DHT22;32703;49.182;9.042;2022-10-29T11:45:10;25.30;85.30
26103;DHT22;32703;49.182;9.042;2022-10-29T11:50:33;25.50;82.80
26103;DHT22;32703;49.182;9.042;2022-10-29T11:53:20;25.70;83.30
26103;DHT22;32703;49.182;9.042;2022-10-29T11:56:06;25.80;82.30
26103;DHT22;32703;49.182;9.042;2022-10-29T11:58:47;25.90;81.30
26103;DHT22;32703;49.182;9.042;2022-10-29T12:01:34;26.00;81.50
26103;DHT22;32703;49.182;9.042;2022-10-29T12:07:31;26.30;80.10
26103;DHT22;32703;49.182;9.042;2022-10-29T12:12:55;26.70;76.00
26103;DHT22;32703;49.182;9.042;2022-10-29T12:15:33;26.70;74.60
26103;DHT22;32703;49.182;9.042;2022-10-29T12:24:01;26.90;72.80
26103;DHT22;32703;49.182;9.042;2022-10-29T12:26:37;26.90;72.50
26103;DHT22;32703;49.182;9.042;2022-10-29T12:32:09;26.70;72.30
26103;DHT22;32703;49.182;9.042;2022-10-29T12:35:01;26.50;72.10
26103;DHT22;32703;49.182;9.042;2022-10-29T12:37:47;26.60;72.30
26103;DHT22;32703;49.182;9.042;2022-10-29T12:40:18;26.50;72.10
26103;DHT22;32703;49.182;9.042;2022-10-29T12:42:47;26.40;72.60
26103;DHT22;32703;49.182;9.042;2022-10-29T12:45:19;26.30;72.50
26103;DHT22;32703;49.182;9.042;2022-10-29T12:47:58;26.30;72.80
26103;DHT22;32703;49.182;9.042;2022-10-29T12:53:03;26.00;72.20
26103;DHT22;32703;49.182;9.042;2022-10-29T12:55:35;25.90;73.00
26103;DHT22;32703;49.182;9.042;2022-10-29T13:01:05;25.90;73.30
26103;DHT22;32703;49.182;9.042;2022-10-29T13:07:02;25.90;74.30
26103;DHT22;32703;49.182;9.042;2022-10-29T13:09:35;26.00;74.10
26103;DHT22;32703;49.182;9.042;2022-10-29T13:12:02;26.10;73.50
26103;DHT22;32703;49.182;9.042;2022-10-29T13:14:39;26.10;74.60
26103;DHT22;32703;49.182;9.042;2022-10-29T13:17:25;25.90;77.10
26103;DHT22;32703;49.182;9.042;2022-10-29T13:30:40;25.20;78.20
26103;DHT22;32703;49.182;9.042;2022-10-29T13:38:45;25.20;79.00
26103;DHT22;32703;49.182;9.042;2022-10-29T13:41:38;25.20;79.20
26103;DHT22;32703;49.182;9.042;2022-10-29T13:49:29;25.10;80.30
26103;DHT22;32703;49.182;9.042;2022-10-29T13:52:03;25.00;81.50
26103;DHT22;32703;49.182;9.042;2022-10-29T13:57:21;24.60;84.20
26103;DHT22;32703;49.182;9.042;2022-10-29T14:07:50;23.80;90.70
26103;DHT22;32703;49.182;9.042;2022-10-29T14:10:21;23.50;92.20
26103;DHT22;32703;49.182;9.042;2022-10-29T14:12:48;23.50;92.80
26103;DHT22;32703;49.182;9.042;2022-10-29T14:15:15;23.30;93.70
26103;DHT22;32703;49.182;9.042;2022-10-29T14:17:42;23.20;94.90
26103;DHT22;32703;49.182;9.042;2022-10-29T14:20:26;23.10;96.10
26103;DHT22;32703;49.182;9.042;2022-10-29T14:22:52;23.00;97.00
26103;DHT22;32703;49.182;9.042;2022-10-29T14:25:28;23.00;97.90
26103;DHT22;32703;49.182;9.042;2022-10-29T14:28:18;22.90;98.10
26103;DHT22;32703;49.182;9.042;2022-10-29T14:30:57;22.80;98.30
26103;DHT22;32703;49.182;9.042;2022-10-29T14:33:26;22.70;99.30
26103;DHT22;32703;49.182;9.042;2022-10-29T14:35:59;22.60;99.90
26103;DHT22;32703;49.182;9.042;2022-10-29T14:38:35;22.50;99.90
26103;DHT22;32703;49.182;9.042;2022-10-29T14:41:02;22.40;99.90
26103;DHT22;32703;49.182;9.042;2022-10-29T14:43:28;22.20;99.90
26103;DHT22;32703;49.182;9.042;2022-10-29T14:45:55;22.10;99.90
26103;DHT22;32703;49.182;9.042;2022-10-29T14:48:32;21.90;99.90
26103;DHT22;32703;49.182;9.042;2022-10-29T14:50:58;21.70;99.90
26103;DHT22;32703;49.182;9.042;2022-10-29T14:53:30;21.60;99.90
26103;DHT22;32703;49.182;9.042;2022-10-29T14:55:58;21.50;99.90
26103;DHT22;32703;49.182;9.042;2022-10-29T14:58:29;21.30;99.90
26103;DHT22;32703;49.182;9.042;2022-10-29T15:00:59;21.20;99.90
26103;DHT22;32703;49.182;9.042;2022-10-29T15:03:28;21.10;99.90
26103;DHT22;32703;49.182;9.042;2022-10-29T15:08:53;21.00;99.90
26103;DHT22;32703;49.182;9.042;2022-10-29T15:11:39;20.90;99.90
26103;DHT22;32703;49.182;9.042;2022-10-29T15:16:50;20.60;99.90
26103;DHT22;32703;49.182;9.042;2022-10-29T15:19:16;20.60;99.90
26103;DHT22;32703;49.182;9.042;2022-10-29T15:21:42;20.40;99.90
26103;DHT22;32703;49.182;9.042;2022-10-29T15:24:10;20.30;99.90
26103;DHT22;32703;49.182;9.042;2022-10-29T15:26:47;20.20;99.90
26103;DHT22;32703;49.182;9.042;2022-10-29T15:29:27;20.10;99.90
26103;DHT22;32703;49.182;9.042;2022-10-29T15:31:55;20.00;99.90
26103;DHT22;32703;49.182;9.042;2022-10-29T15:36:49;19.80;99.90
26103;DHT22;32703;49.182;9.042;2022-10-29T15:39:20;19.60;99.90
26103;DHT22;32703;49.182;9.042;2022-10-29T15:41:48;19.50;99.90
26103;DHT22;32703;49.182;9.042;2022-10-29T15:46:51;19.30;99.90
26103;DHT22;32703;49.182;9.042;2022-10-29T15:49:23;19.20;99.90
26103;DHT22;32703;49.182;9.042;2022-10-29T15:51:49;19.10;99.90
26103;DHT22;32703;49.182;9.042;2022-10-29T15:54:14;19.00;99.90
26103;DHT22;32703;49.182;9.042;2022-10-29T15:56:40;18.80;99.90
26103;DHT22;32703;49.182;9.042;2022-10-29T15:59:09;18.80;99.90
26103;DHT22;32703;49.182;9.042;2022-10-29T16:01:36;18.70;99.90
26103;DHT22;32703;49.182;9.042;2022-10-29T16:04:02;18.60;99.90
26103;DHT22;32703;49.182;9.042;2022-10-29T16:06:27;18.50;99.90
26103;DHT22;32703;49.182;9.042;2022-10-29T16:08:55;18.40;99.90
26103;DHT22;32703;49.182;9.042;2022-10-29T16:11:21;18.30;99.90
26103;DHT22;32703;49.182;9.042;2022-10-29T16:13:50;18.20;99.90
26103;DHT22;32703;49.182;9.042;2022-10-29T16:16:19;18.20;99.90
26103;DHT22;32703;49.182;9.042;2022-10-29T16:18:46;18.10;99.90
26103;DHT22;32703;49.182;9.042;2022-10-29T16:21:15;18.00;99.90
26103;DHT22;32703;49.182;9.042;2022-10-29T16:23:42;18.00;99.90
26103;DHT22;32703;49.182;9.042;2022-10-29T16:26:10;17.90;99.90
26103;DHT22;32703;49.182;9.042;2022-10-29T16:28:38;17.80;99.90
26103;DHT22;32703;49.182;9.042;2022-10-29T16:33:49;17.70;99.90
26103;DHT22;32703;49.182;9.042;2022-10-29T16:36:16;17.70;99.90
26103;DHT22;32703;49.182;9.042;2022-10-29T16:38:41;17.60;99.90
26103;DHT22;32703;49.182;9.042;2022-10-29T16:41:18;17.50;99.90
26103;DHT22;32703;49.182;9.042;2022-10-29T16:43:45;17.50;99.90
26103;DHT22;32703;49.182;9.042;2022-10-29T16:46:11;17.50;99.90
26103;DHT22;32703;49.182;9.042;2022-10-29T16:48:37;17.40;99.90
26103;DHT22;32703;49.182;9.042;2022-10-29T16:51:03;17.40;99.90
26103;DHT22;32703;49.182;9.042;2022-10-29T16:53:29;17.40;99.90
26103;DHT22;32703;49.182;9.042;2022-10-29T16:55:55;17.40;99.90
26103;DHT22;32703;49.182;9.042;2022-10-29T16:58:21;17.30;99.90
26103;DHT22;32703;49.182;9.042;2022-10-29T17:00:46;17.30;99.90
26103;DHT22;32703;49.182;9.042;2022-10-29T17:03:13;17.20;99.90
26103;DHT22;32703;49.182;9.042;2022-10-29T17:05:41;17.20;99.90
26103;DHT22;32703;49.182;9.042;2022-10-29T17:08:07;17.20;99.90
26103;DHT22;32703;49.182;9.042;2022-10-29T17:10:33;17.20;99.90
26103;DHT22;32703;49.182;9.042;2022-10-29T17:12:59;17.20;99.90
26103;DHT22;32703;49.182;9.042;2022-10-29T17:15:25;17.20;99.90
26103;DHT22;32703;49.182;9.042;2022-10-29T17:17:51;17.20;99.90
26103;DHT22;32703;49.182;9.042;2022-10-29T17:20:17;17.00;99.90
26103;DHT22;32703;49.182;9.042;2022-10-29T17:22:43;17.20;99.90
26103;DHT22;32703;49.182;9.042;2022-10-29T17:25:09;17.10;99.90
26103;DHT22;32703;49.182;9.042;2022-10-29T17:27:39;17.10;99.90
26103;DHT22;32703;49.182;9.042;2022-10-29T17:30:05;17.10;99.90
26103;DHT22;32703;49.182;9.042;2022-10-29T17:32:31;17.00;99.90
26103;DHT22;32703;49.182;9.042;2022-10-29T17:34:58;16.90;99.90
26103;DHT22;32703;49.182;9.042;2022-10-29T17:37:24;16.90;99.90
26103;DHT22;32703;49.182;9.042;2022-10-29T17:39:50;17.00;99.90
26103;DHT22;32703;49.182;9.042;2022-10-29T17:42:15;16.90;99.90
26103;DHT22;32703;49.182;9.042;2022-10-29T17:44:41;16.90;99.90
26103;DHT22;32703;49.182;9.042;2022-10-29T17:47:06;16.80;99.90
26103;DHT22;32703;49.182;9.042;2022-10-29T17:49:32;16.80;99.90
26103;DHT22;32703;49.182;9.042;2022-10-29T17:51:57;16.80;99.90
26103;DHT22;32703;49.182;9.042;2022-10-29T17:54:23;16.70;99.90
26103;DHT22;32703;49.182;9.042;2022-10-29T17:56:49;16.70;99.90
26103;DHT22;32703;49.182;9.042;2022-10-29T17:59:15;16.70;99.90
26103;DHT22;32703;49.182;9.042;2022-10-29T18:01:42;16.70;99.90
26103;DHT22;32703;49.182;9.042;2022-10-29T18:04:08;16.70;99.90
26103;DHT22;32703;49.182;9.042;2022-10-29T18:06:34;16.60;99.90
26103;DHT22;32703;49.182;9.042;2022-10-29T18:08:59;16.60;99.90